Time;durP1;ratioP1;P1;durP2;ratioP2;P2;SDS_P1;SDS_P2;PMS_P1;PMS_P2;Temp;Humidity;BMP_temperature;BMP_pressure;BME280_temperature;BME280_humidity;BME280_pressure;Samples;Min_cycle;Max_cycle;Signal;HPM_P1;HPM_P2
2023/05/23 00:00:58;;;;;;;6.88;5.63;;;;;;;14.44;70.00;94792.09;5005027;28;20222;-66
2023/05/23 00:03:27;;;;;;;6.38;5.22;;;;;;;14.45;69.66;94791.91;5004857;28;20299;-66
2023/05/23 00:05:53;;;;;;;6.50;5.65;;;;;;;14.42;69.19;94786.16;4999988;28;20215;-66
2023/05/23 00:08:18;;;;;;;5.18;4.68;;;;;;;14.38;68.72;94783.06;4984042;28;20203;-65
2023/05/23 00:10:44;;;;;;;5.18;4.68;;;;;;;14.36;68.50;94782.41;4984563;28;20270;-65
2023/05/23 00:13:11;;;;;;;5.45;4.70;;;;;;;14.33;68.27;94782.78;4981860;28;20310;-65
2023/05/23 00:15:47;;;;;;;6.35;5.13;;;;;;;14.29;67.94;94784.94;4999481;28;20230;-65
2023/05/23 00:18:14;;;;;;;5.57;4.72;;;;;;;14.25;68.05;94781.03;4997510;28;20230;-65
2023/05/23 00:20:41;;;;;;;4.60;4.13;;;;;;;14.24;68.70;94783.84;4996229;28;20218;-65
2023/05/23 00:23:08;;;;;;;6.43;4.05;;;;;;;14.19;68.54;94786.19;4981445;28;20203;-65
2023/05/23 00:25:37;;;;;;;4.90;4.40;;;;;;;14.20;67.96;94778.09;4994982;28;20188;-65
2023/05/23 00:28:03;;;;;;;5.00;3.85;;;;;;;14.19;67.56;94781.72;4981945;28;20611;-65
2023/05/23 00:30:30;;;;;;;5.32;3.88;;;;;;;14.20;67.40;94774.63;4985091;28;20219;-65
2023/05/23 00:32:56;;;;;;;4.40;4.00;;;;;;;14.13;67.48;94775.34;4989071;28;20293;-65
2023/05/23 00:35:25;;;;;;;4.75;4.28;;;;;;;14.17;67.53;94777.66;4981948;28;20455;-64
2023/05/23 00:37:50;;;;;;;4.90;4.40;;;;;;;14.11;67.68;94776.50;4982611;28;20191;-65
2023/05/23 00:40:19;;;;;;;5.47;4.20;;;;;;;14.07;67.85;94776.06;4983652;28;20232;-65
2023/05/23 00:42:45;;;;;;;4.25;3.85;;;;;;;14.00;68.22;94782.25;4986107;28;20692;-64
2023/05/23 00:45:11;;;;;;;4.20;3.80;;;;;;;13.97;68.50;94770.19;4995974;28;20233;-64
2023/05/23 00:47:38;;;;;;;4.88;3.70;;;;;;;13.96;68.50;94768.56;4975440;28;20227;-65
2023/05/23 00:50:06;;;;;;;6.30;3.88;;;;;;;13.96;67.84;94765.09;4983753;28;20192;-65
2023/05/23 00:52:32;;;;;;;4.47;3.88;;;;;;;13.97;68.32;94772.84;4965236;28;20188;-65
2023/05/23 00:54:57;;;;;;;5.00;3.67;;;;;;;13.93;68.55;94761.00;4982792;28;20227;-66
2023/05/23 00:57:23;;;;;;;4.13;3.72;;;;;;;13.89;68.52;94772.91;4986201;28;20246;-66
2023/05/23 00:59:48;;;;;;;4.65;3.90;;;;;;;13.88;68.51;94773.94;4984424;28;20223;-66
2023/05/23 01:02:14;;;;;;;5.00;4.50;;;;;;;13.85;68.50;94769.00;4988843;28;20198;-66
2023/05/23 01:04:40;;;;;;;4.90;4.40;;;;;;;13.70;68.48;94776.03;5002019;28;20180;-66
2023/05/23 01:07:06;;;;;;;5.13;4.28;;;;;;;13.83;68.51;94784.19;5001279;28;20235;-65
2023/05/23 01:09:31;;;;;;;5.15;3.90;;;;;;;13.85;68.51;94785.66;5002560;28;20223;-68
2023/05/23 01:12:15;;;;;;;5.47;3.60;;;;;;;13.76;69.02;94788.53;5003333;28;20225;-68
2023/05/23 01:14:52;;;;;;;4.38;3.97;;;;;;;13.72;68.89;94774.06;4999812;28;20234;-67
2023/05/23 01:17:43;;;;;;;4.55;3.55;;;;;;;13.77;68.60;94777.00;5006643;28;20268;-68
2023/05/23 01:20:18;;;;;;;5.57;4.32;;;;;;;13.59;68.87;94775.44;4971016;28;20697;-65
2023/05/23 01:22:59;;;;;;;4.57;4.15;;;;;;;13.44;69.57;94779.84;4966014;28;20187;-66
2023/05/23 01:25:57;;;;;;;5.55;4.95;;;;;;;13.55;69.44;94770.69;4981899;28;20232;-65
2023/05/23 01:28:28;;;;;;;5.18;4.68;;;;;;;13.60;69.03;94779.72;4964381;28;20220;-65
2023/05/23 01:30:57;;;;;;;5.28;4.45;;;;;;;13.66;69.02;94780.88;4964913;28;20243;-65
2023/05/23 01:33:24;;;;;;;4.50;4.10;;;;;;;13.61;69.41;94785.84;4967176;28;20223;-65
2023/05/23 01:35:50;;;;;;;4.93;4.07;;;;;;;13.53;69.31;94768.25;4975725;28;20231;-65
2023/05/23 01:38:16;;;;;;;4.00;3.60;;;;;;;13.58;69.27;94776.47;4973308;28;20200;-65
2023/05/23 01:40:42;;;;;;;4.50;4.00;;;;;;;13.60;69.33;94782.38;4971078;28;20260;-66
2023/05/23 01:43:07;;;;;;;4.72;4.25;;;;;;;13.48;70.00;94772.41;4962983;28;20322;-65
2023/05/23 01:45:33;;;;;;;4.88;4.07;;;;;;;13.46;70.00;94775.22;4963553;28;20259;-66
2023/05/23 01:47:59;;;;;;;4.60;4.10;;;;;;;13.53;69.72;94768.25;4961580;28;20239;-66
2023/05/23 01:50:25;;;;;;;4.43;4.03;;;;;;;13.54;69.71;94761.94;4964814;28;21207;-65
2023/05/23 01:52:52;;;;;;;4.72;4.00;;;;;;;13.53;69.70;94764.78;4970644;28;20219;-65
2023/05/23 01:55:25;;;;;;;5.00;4.10;;;;;;;13.49;69.51;94763.47;4971292;28;20227;-65
2023/05/23 01:57:52;;;;;;;5.00;4.10;;;;;;;13.39;69.13;94756.63;4989983;28;20227;-65
2023/05/23 02:00:18;;;;;;;5.10;4.07;;;;;;;13.26;70.10;94777.50;5007276;28;20234;-65
2023/05/23 02:02:44;;;;;;;6.95;4.28;;;;;;;13.27;70.30;94773.03;5006357;28;20237;-65
2023/05/23 02:05:10;;;;;;;4.40;4.00;;;;;;;13.23;70.27;94764.59;5002852;28;20226;-65
2023/05/23 02:07:35;;;;;;;4.15;3.60;;;;;;;13.23;69.92;94772.50;5008547;28;20202;-69
2023/05/23 02:10:03;;;;;;;4.45;3.80;;;;;;;13.33;69.59;94777.59;5005893;28;20246;-69
2023/05/23 02:12:28;;;;;;;4.30;3.83;;;;;;;13.23;69.56;94768.06;5006583;28;20220;-69
2023/05/23 02:14:54;;;;;;;4.85;4.15;;;;;;;13.21;69.84;94780.63;4998983;28;20237;-69
2023/05/23 02:17:23;;;;;;;4.32;3.92;;;;;;;13.06;69.99;94769.16;4998418;28;20239;-70
2023/05/23 02:19:48;;;;;;;4.03;3.60;;;;;;;13.08;70.17;94768.97;5005186;28;20188;-70
2023/05/23 02:22:14;;;;;;;5.93;4.35;;;;;;;13.12;70.18;94778.19;4999241;28;20222;-72
2023/05/23 02:24:39;;;;;;;3.83;3.47;;;;;;;13.14;69.73;94763.81;5005962;28;20297;-72
2023/05/23 02:27:05;;;;;;;5.40;3.58;;;;;;;13.16;69.50;94769.75;5004413;28;20656;-68
2023/05/23 02:29:31;;;;;;;4.07;3.47;;;;;;;13.08;69.28;94767.16;4989747;28;20694;-68
2023/05/23 02:31:56;;;;;;;4.72;3.88;;;;;;;13.07;69.74;94772.59;4999398;28;20352;-68
2023/05/23 02:34:22;;;;;;;6.07;5.15;;;;;;;13.05;70.43;94772.78;5005557;28;20226;-69
2023/05/23 02:36:47;;;;;;;8.18;6.00;;;;;;;13.02;71.09;94770.50;5003761;28;20755;-69
2023/05/23 02:39:13;;;;;;;8.43;6.40;;;;;;;13.09;71.34;94762.69;5006556;28;20214;-69
2023/05/23 02:41:38;;;;;;;7.85;6.15;;;;;;;13.06;71.85;94760.41;5006449;28;20210;-69
2023/05/23 02:44:04;;;;;;;8.25;6.38;;;;;;;13.11;71.52;94761.53;5001913;28;20270;-69
2023/05/23 02:46:29;;;;;;;8.93;6.43;;;;;;;13.10;71.35;94759.09;5001408;28;20196;-70
2023/05/23 02:48:55;;;;;;;7.72;6.13;;;;;;;12.95;72.09;94762.44;5005059;28;20222;-70
2023/05/23 02:51:20;;;;;;;7.13;5.78;;;;;;;12.92;71.83;94757.50;5004199;28;20258;-69
2023/05/23 02:53:46;;;;;;;7.65;6.13;;;;;;;12.95;71.91;94756.34;5002244;28;20223;-70
2023/05/23 02:56:12;;;;;;;8.43;6.38;;;;;;;13.04;71.65;94755.28;5005834;28;20194;-69
2023/05/23 02:58:38;;;;;;;7.63;6.07;;;;;;;13.07;71.39;94759.41;5003601;28;20871;-69
2023/05/23 03:01:05;;;;;;;7.70;6.53;;;;;;;13.06;71.33;94752.50;5006936;28;20678;-69
2023/05/23 03:03:30;;;;;;;8.60;6.97;;;;;;;13.06;71.66;94752.50;5006317;28;20701;-69
2023/05/23 03:06:00;;;;;;;9.02;6.28;;;;;;;13.08;71.78;94756.59;5002882;28;20227;-71
2023/05/23 03:08:26;;;;;;;10.30;7.78;;;;;;;12.99;72.49;94754.97;5003993;28;20229;-69
2023/05/23 03:10:52;;;;;;;9.82;6.47;;;;;;;13.06;72.43;94755.94;5000696;28;20195;-68
2023/05/23 03:13:17;;;;;;;10.38;7.50;;;;;;;13.07;72.67;94754.97;4995461;28;20231;-65
2023/05/23 03:15:43;;;;;;;10.15;7.63;;;;;;;12.99;72.54;94755.84;5007437;28;20215;-69
2023/05/23 03:18:08;;;;;;;9.73;7.55;;;;;;;13.09;72.47;94752.97;5001773;28;20219;-69
2023/05/23 03:20:33;;;;;;;11.45;6.85;;;;;;;13.06;72.53;94755.94;5003357;28;20225;-69
2023/05/23 03:22:59;;;;;;;10.20;8.00;;;;;;;12.96;72.49;94758.81;5001986;28;20187;-69
2023/05/23 03:25:24;;;;;;;10.40;7.18;;;;;;;12.89;72.85;94767.59;5004166;28;20226;-69
2023/05/23 03:27:50;;;;;;;8.90;7.43;;;;;;;12.94;72.85;94760.81;4999428;28;20297;-69
2023/05/23 03:30:16;;;;;;;9.57;7.57;;;;;;;12.98;72.36;94769.19;5002901;28;20225;-69
2023/05/23 03:32:41;;;;;;;9.90;7.72;;;;;;;12.92;72.79;94772.53;5004362;28;20230;-65
2023/05/23 03:35:07;;;;;;;7.70;6.90;;;;;;;12.90;72.74;94771.88;5007919;28;20191;-65
2023/05/23 03:37:32;;;;;;;8.67;7.43;;;;;;;12.80;73.67;94775.53;5005855;28;20175;-67
2023/05/23 03:39:58;;;;;;;9.40;7.13;;;;;;;12.88;73.35;94776.47;5004642;28;20219;-67
2023/05/23 03:42:23;;;;;;;10.10;7.15;;;;;;;12.90;73.19;94775.31;5007252;28;20268;-67
2023/05/23 03:44:49;;;;;;;12.03;8.33;;;;;;;12.93;73.37;94777.59;5008161;28;20238;-68
2023/05/23 03:47:14;;;;;;;9.82;7.07;;;;;;;13.05;73.32;94783.34;4999945;28;20195;-68
2023/05/23 03:49:40;;;;;;;11.20;8.00;;;;;;;13.06;73.23;94774.41;5004513;28;20318;-67
2023/05/23 03:52:05;;;;;;;10.88;7.97;;;;;;;13.05;73.67;94777.25;5004751;28;20870;-65
2023/05/23 03:54:31;;;;;;;10.48;7.95;;;;;;;13.15;73.56;94783.13;5002046;28;20702;-65
2023/05/23 03:56:56;;;;;;;10.65;7.10;;;;;;;13.25;72.54;94789.81;5000917;28;20220;-66
2023/05/23 03:59:22;;;;;;;9.00;7.25;;;;;;;13.28;72.36;94787.88;4991303;28;20829;-66
2023/05/23 04:01:47;;;;;;;9.90;7.88;;;;;;;13.21;72.83;94793.00;5008007;28;20241;-66
2023/05/23 04:04:13;;;;;;;8.98;6.55;;;;;;;13.29;73.07;94795.63;5008455;28;20302;-66
2023/05/23 04:06:38;;;;;;;10.80;7.70;;;;;;;13.32;72.74;94794.47;5007948;28;20210;-67
2023/05/23 04:09:05;;;;;;;9.15;6.35;;;;;;;13.38;72.79;94785.84;5009066;28;20250;-67
2023/05/23 04:11:31;;;;;;;10.75;8.02;;;;;;;13.51;72.37;94780.78;5003332;28;20226;-67
2023/05/23 04:13:57;;;;;;;9.15;6.93;;;;;;;13.55;71.81;94782.09;5000907;28;20203;-67
2023/05/23 04:16:22;;;;;;;10.05;8.57;;;;;;;13.57;71.77;94774.81;5002901;28;20224;-67
2023/05/23 04:18:48;;;;;;;10.23;7.85;;;;;;;13.59;71.60;94772.81;4996857;28;20306;-71
2023/05/23 04:21:14;;;;;;;8.65;6.78;;;;;;;13.68;71.50;94774.41;5001345;28;20251;-71
2023/05/23 04:23:39;;;;;;;8.90;7.15;;;;;;;13.70;71.69;94781.34;5002722;28;20305;-70
2023/05/23 04:26:05;;;;;;;10.70;7.72;;;;;;;13.48;72.43;94793.53;5008400;28;20210;-70
2023/05/23 04:28:30;;;;;;;11.40;8.43;;;;;;;13.66;72.16;94786.97;4993570;28;20304;-70
2023/05/23 04:30:57;;;;;;;10.85;8.38;;;;;;;13.69;72.15;94791.09;4993451;28;20891;-71
2023/05/23 04:33:23;;;;;;;11.23;8.60;;;;;;;13.67;72.68;94787.78;4977741;28;20224;-70
2023/05/23 04:35:48;;;;;;;12.63;9.15;;;;;;;13.53;72.73;94793.84;4978390;28;20239;-73
2023/05/23 04:38:13;;;;;;;14.35;10.05;;;;;;;13.55;72.93;94791.81;4980238;28;20188;-71
2023/05/23 04:40:39;;;;;;;14.57;9.27;;;;;;;13.59;72.78;94791.31;4977543;28;20438;-72
2023/05/23 04:43:04;;;;;;;12.35;8.95;;;;;;;13.67;72.52;94788.59;4982637;28;20215;-72
2023/05/23 04:45:30;;;;;;;7.93;5.82;;;;;;;13.74;71.49;94782.59;4982083;28;20219;-71
2023/05/23 04:47:56;;;;;;;5.30;4.75;;;;;;;13.88;70.24;94795.88;4988772;28;20246;-71
2023/05/23 04:50:22;;;;;;;5.03;4.38;;;;;;;13.95;69.57;94790.69;5006643;28;20324;-72
2023/05/23 04:52:47;;;;;;;7.20;4.57;;;;;;;13.99;68.20;94799.13;5003237;28;20266;-70
2023/05/23 04:55:13;;;;;;;6.13;4.55;;;;;;;14.00;68.43;94798.91;5009089;28;20214;-74
2023/05/23 04:57:38;;;;;;;7.10;5.20;;;;;;;14.17;68.36;94793.50;5004584;28;20250;-74
2023/05/23 05:00:11;;;;;;;6.63;4.63;;;;;;;13.97;67.67;94801.09;5003720;28;20214;-74
2023/05/23 05:02:37;;;;;;;7.00;5.15;;;;;;;13.54;69.47;94808.69;5006725;28;20230;-74
2023/05/23 05:05:03;;;;;;;4.95;4.00;;;;;;;13.42;70.18;94808.28;5004517;28;20199;-73
2023/05/23 05:07:29;;;;;;;6.60;4.28;;;;;;;13.47;70.47;94813.81;5002279;28;20732;-74
2023/05/23 05:09:55;;;;;;;7.55;4.95;;;;;;;13.67;69.63;94811.56;5006928;28;20241;-74
2023/05/23 05:12:21;;;;;;;6.10;5.40;;;;;;;13.85;69.04;94812.09;5008433;28;20222;-71
2023/05/23 05:14:46;;;;;;;8.23;5.78;;;;;;;13.91;69.49;94815.84;5003541;28;20730;-68
2023/05/23 05:17:11;;;;;;;8.88;6.07;;;;;;;13.86;69.12;94808.44;4998112;28;20264;-68
2023/05/23 05:19:37;;;;;;;8.48;7.07;;;;;;;13.72;71.28;94809.22;5003226;28;20187;-68
2023/05/23 05:22:03;;;;;;;10.50;7.03;;;;;;;13.81;70.15;94815.25;5005515;28;20227;-71
2023/05/23 05:24:28;;;;;;;10.60;6.90;;;;;;;14.02;69.10;94818.06;5003366;28;20214;-71
2023/05/23 05:26:54;;;;;;;8.43;7.10;;;;;;;14.21;68.37;94823.88;5008036;28;20219;-71
2023/05/23 05:29:20;;;;;;;9.82;6.65;;;;;;;14.27;68.18;94808.13;5006529;28;20227;-70
2023/05/23 05:31:46;;;;;;;9.40;6.88;;;;;;;14.33;68.23;94809.22;5005053;28;20178;-69
2023/05/23 05:34:12;;;;;;;11.00;7.75;;;;;;;14.49;67.94;94819.66;5006404;28;20694;-68
2023/05/23 05:36:44;;;;;;;10.18;7.75;;;;;;;14.02;70.10;94819.91;5000408;28;21053;-68
2023/05/23 05:39:10;;;;;;;9.43;7.03;;;;;;;13.98;69.55;94810.66;5002055;28;20717;-68
2023/05/23 05:41:35;;;;;;;10.60;7.65;;;;;;;14.10;68.86;94820.66;5006524;28;20218;-68
2023/05/23 05:44:01;;;;;;;10.13;7.55;;;;;;;14.17;68.69;94817.31;5005928;28;20187;-68
2023/05/23 05:46:26;;;;;;;9.25;7.75;;;;;;;14.25;69.05;94823.34;5004902;28;20246;-68
2023/05/23 05:48:51;;;;;;;11.60;7.90;;;;;;;14.38;68.48;94817.44;5007182;28;20218;-68
2023/05/23 05:51:17;;;;;;;11.70;8.05;;;;;;;14.48;67.76;94820.63;4982939;28;20211;-68
2023/05/23 05:53:42;;;;;;;10.20;8.30;;;;;;;14.54;67.50;94832.34;4998018;28;20230;-68
2023/05/23 05:56:08;;;;;;;10.38;8.10;;;;;;;14.62;67.66;94824.34;4994198;28;20188;-70
2023/05/23 05:58:33;;;;;;;11.20;8.35;;;;;;;14.73;67.06;94821.25;4994226;28;20542;-68
2023/05/23 06:00:59;;;;;;;11.10;8.85;;;;;;;14.87;66.65;94830.19;4998655;28;20565;-68
2023/05/23 06:03:26;;;;;;;10.88;8.23;;;;;;;14.96;66.58;94821.13;4997566;28;20320;-69
2023/05/23 06:05:51;;;;;;;12.68;9.18;;;;;;;14.97;66.78;94821.97;4996471;28;20206;-69
2023/05/23 06:08:17;;;;;;;10.90;8.88;;;;;;;14.98;66.45;94815.69;4999412;28;20218;-71
2023/05/23 06:10:42;;;;;;;12.57;8.93;;;;;;;14.89;67.05;94814.09;4999334;28;20655;-71
2023/05/23 06:13:07;;;;;;;11.57;8.77;;;;;;;14.96;66.74;94822.97;4995771;28;20234;-70
2023/05/23 06:15:33;;;;;;;12.57;9.27;;;;;;;14.94;66.89;94823.16;4993733;28;20223;-70
2023/05/23 06:17:58;;;;;;;12.98;10.25;;;;;;;15.06;66.54;94828.00;4997410;28;20233;-69
2023/05/23 06:20:24;;;;;;;12.32;8.98;;;;;;;15.15;67.02;94827.69;4995569;28;20222;-71
2023/05/23 06:22:49;;;;;;;13.07;8.80;;;;;;;15.39;66.13;94829.22;4994615;28;20642;-68
2023/05/23 06:25:15;;;;;;;13.73;8.60;;;;;;;14.97;67.68;94830.75;4999014;28;20273;-69
2023/05/23 06:27:40;;;;;;;12.82;9.73;;;;;;;14.80;68.95;94816.03;4996241;28;20681;-69
2023/05/23 06:30:06;;;;;;;13.00;9.55;;;;;;;14.99;68.42;94820.81;4990896;28;20290;-68
2023/05/23 06:32:32;;;;;;;12.73;10.05;;;;;;;15.15;68.10;94829.53;4997513;28;20644;-68
2023/05/23 06:34:57;;;;;;;14.00;10.00;;;;;;;15.10;67.70;94824.81;4994699;28;20213;-69
2023/05/23 06:37:23;;;;;;;12.27;9.73;;;;;;;15.19;66.93;94830.81;4997956;28;20582;-69
2023/05/23 06:39:49;;;;;;;12.63;9.80;;;;;;;15.34;67.09;94834.28;4995834;28;20223;-68
2023/05/23 06:42:15;;;;;;;11.70;9.50;;;;;;;15.48;66.64;94829.13;4992635;28;20228;-69
2023/05/23 06:44:40;;;;;;;11.73;9.48;;;;;;;15.57;66.24;94830.66;4992756;28;20747;-67
2023/05/23 06:47:06;;;;;;;12.23;9.68;;;;;;;15.36;65.69;94826.94;4995067;28;20180;-70
2023/05/23 06:49:31;;;;;;;11.73;8.85;;;;;;;15.27;66.05;94828.06;4994732;28;20185;-70
2023/05/23 06:51:57;;;;;;;10.38;8.57;;;;;;;15.10;66.82;94821.31;4991530;28;20221;-72
2023/05/23 06:54:22;;;;;;;12.55;8.80;;;;;;;15.31;66.48;94821.38;4997975;28;20724;-71
2023/05/23 06:56:47;;;;;;;11.02;8.73;;;;;;;15.42;66.20;94823.56;4998645;28;20218;-71
2023/05/23 06:59:13;;;;;;;9.77;7.85;;;;;;;15.55;65.90;94817.56;4996366;28;20186;-72
2023/05/23 07:01:38;;;;;;;14.43;8.82;;;;;;;15.66;66.17;94816.25;4997220;28;20322;-71
2023/05/23 07:04:04;;;;;;;10.18;8.32;;;;;;;15.74;65.48;94808.22;5005334;28;20219;-70
2023/05/23 07:06:30;;;;;;;9.48;7.70;;;;;;;15.72;65.03;94806.78;4998377;28;20289;-73
2023/05/23 07:08:55;;;;;;;13.90;10.50;;;;;;;15.80;65.06;94812.78;4999879;28;20226;-67
2023/05/23 07:11:21;;;;;;;10.50;8.32;;;;;;;15.80;64.86;94804.03;4995336;28;20243;-68
2023/05/23 07:13:46;;;;;;;10.77;9.00;;;;;;;15.86;64.42;94805.91;5000927;28;20195;-65
2023/05/23 07:16:12;;;;;;;10.30;8.35;;;;;;;15.94;64.52;94805.78;4996066;28;20562;-65
2023/05/23 07:18:37;;;;;;;13.15;9.80;;;;;;;15.99;64.58;94802.56;4999630;28;20218;-64
2023/05/23 07:21:03;;;;;;;12.27;9.40;;;;;;;16.05;64.67;94799.94;4994829;28;20222;-70
2023/05/23 07:23:32;;;;;;;10.80;8.68;;;;;;;16.15;65.06;94783.72;4998801;28;20222;-65
2023/05/23 07:25:57;;;;;;;12.85;10.30;;;;;;;16.04;65.55;94785.06;4997686;28;20190;-69
2023/05/23 07:28:23;;;;;;;14.15;9.48;;;;;;;16.08;65.70;94788.97;4996905;28;20230;-70
2023/05/23 07:30:48;;;;;;;12.63;10.27;;;;;;;16.07;66.00;94781.22;5009459;28;20250;-68
2023/05/23 07:33:14;;;;;;;12.27;9.07;;;;;;;16.19;65.86;94778.84;4997004;28;20227;-64
2023/05/23 07:35:39;;;;;;;12.43;10.50;;;;;;;16.30;65.82;94775.66;5001560;28;20870;-67
2023/05/23 07:38:04;;;;;;;11.73;8.40;;;;;;;16.44;64.75;94781.88;4996512;28;20318;-65
2023/05/23 07:40:30;;;;;;;11.13;9.23;;;;;;;16.56;64.72;94779.53;4996288;28;20694;-74
2023/05/23 07:42:56;;;;;;;11.80;9.45;;;;;;;16.64;64.67;94776.72;4994599;28;20254;-71
2023/05/23 07:45:21;;;;;;;11.55;9.68;;;;;;;16.73;64.38;94772.88;4997935;28;20223;-67
2023/05/23 07:47:48;;;;;;;13.88;9.88;;;;;;;16.73;64.17;94768.41;4994814;28;20223;-64
2023/05/23 07:50:13;;;;;;;13.98;10.18;;;;;;;16.76;64.42;94775.97;4994035;28;20658;-64
2023/05/23 07:52:40;;;;;;;12.77;9.98;;;;;;;16.84;64.46;94774.19;5002406;28;20195;-65
2023/05/23 07:55:06;;;;;;;14.32;10.35;;;;;;;16.82;63.97;94768.28;5001559;28;20231;-68
2023/05/23 07:57:31;;;;;;;10.25;8.75;;;;;;;16.85;63.46;94767.88;5001367;28;20219;-70
2023/05/23 07:59:57;;;;;;;12.40;9.35;;;;;;;16.70;64.83;94774.09;4999323;28;20215;-69
2023/05/23 08:02:22;;;;;;;12.15;9.95;;;;;;;16.79;65.19;94768.69;4999395;28;20222;-73
2023/05/23 08:04:48;;;;;;;12.48;9.25;;;;;;;16.91;64.78;94767.09;4982968;28;20182;-70
2023/05/23 08:07:14;;;;;;;10.10;9.02;;;;;;;16.89;64.84;94769.13;4996093;28;20325;-68
2023/05/23 08:09:39;;;;;;;11.50;8.77;;;;;;;16.98;65.00;94773.25;4998462;28;20239;-68
2023/05/23 08:12:06;;;;;;;9.93;7.85;;;;;;;17.09;64.72;94761.25;4998665;28;20262;-68
2023/05/23 08:14:31;;;;;;;11.15;9.25;;;;;;;17.16;64.67;94762.91;4997253;28;20590;-69
2023/05/23 08:16:57;;;;;;;11.30;9.05;;;;;;;17.27;64.38;94766.00;4996791;28;20195;-68
2023/05/23 08:19:22;;;;;;;9.43;8.43;;;;;;;17.27;64.10;94758.88;4998574;28;20288;-67
2023/05/23 08:21:48;;;;;;;8.43;7.43;;;;;;;17.24;64.02;94753.97;5000249;28;20231;-69
2023/05/23 08:24:13;;;;;;;9.90;7.68;;;;;;;17.33;63.53;94754.59;5006570;28;20222;-73
2023/05/23 08:26:39;;;;;;;9.63;7.85;;;;;;;17.43;64.03;94760.34;5007086;28;20276;-76
2023/05/23 08:29:04;;;;;;;7.65;6.90;;;;;;;17.51;64.13;94765.50;5007299;28;20257;-73
2023/05/23 08:31:31;;;;;;;7.53;6.72;;;;;;;17.60;63.81;94766.94;4996695;28;20188;-71
2023/05/23 08:33:58;;;;;;;8.52;6.20;;;;;;;17.67;62.84;94755.47;5005892;28;20227;-70
2023/05/23 08:36:23;;;;;;;6.88;5.93;;;;;;;17.71;63.31;94754.06;5003429;28;20225;-68
2023/05/23 08:38:50;;;;;;;8.43;6.10;;;;;;;17.79;62.71;94748.59;5008741;28;20601;-72
2023/05/23 08:41:20;;;;;;;6.60;6.00;;;;;;;17.88;62.43;94758.00;5015767;28;20202;-73
2023/05/23 08:43:46;;;;;;;5.93;5.32;;;;;;;17.93;62.51;94754.72;5007079;28;20183;-71
2023/05/23 08:46:13;;;;;;;7.18;6.47;;;;;;;18.01;62.54;94735.91;5002805;28;20226;-70
2023/05/23 08:48:40;;;;;;;7.55;6.22;;;;;;;17.99;62.96;94748.59;5000740;28;20231;-70
2023/05/23 08:51:12;;;;;;;6.85;6.15;;;;;;;18.03;62.66;94747.16;5007856;28;20215;-72
2023/05/23 08:53:41;;;;;;;6.10;5.50;;;;;;;18.15;60.92;94742.88;5002211;28;20231;-71
2023/05/23 08:56:08;;;;;;;6.93;6.13;;;;;;;18.12;61.68;94748.59;5002101;28;20196;-71
2023/05/23 08:58:34;;;;;;;8.68;6.75;;;;;;;18.18;62.10;94747.78;5008974;28;20190;-73
2023/05/23 09:01:00;;;;;;;8.00;7.20;;;;;;;18.23;61.53;94745.34;5006040;28;20215;-70
2023/05/23 09:03:26;;;;;;;8.10;6.45;;;;;;;18.27;61.45;94749.22;5002839;28;20223;-70
2023/05/23 09:05:56;;;;;;;6.55;5.88;;;;;;;18.33;60.16;94749.41;5004361;28;20269;-68
2023/05/23 09:08:23;;;;;;;5.35;4.85;;;;;;;18.24;59.00;94743.50;5008252;28;20593;-68
2023/05/23 09:10:49;;;;;;;8.35;6.35;;;;;;;18.22;58.93;94746.34;5004704;28;20183;-69
2023/05/23 09:13:16;;;;;;;7.63;6.20;;;;;;;18.35;60.62;94742.84;5007227;28;20227;-69
2023/05/23 09:16:01;;;;;;;6.68;6.07;;;;;;;18.32;60.63;94748.59;4993426;28;20313;-68
2023/05/23 09:18:41;;;;;;;8.23;5.47;;;;;;;18.55;59.91;94739.34;4995333;28;20332;-68
2023/05/23 09:21:11;;;;;;;6.22;5.53;;;;;;;18.52;59.14;94743.25;4996173;28;20245;-68
2023/05/23 09:23:39;;;;;;;4.18;3.78;;;;;;;18.58;56.35;94730.94;4988442;28;20362;-68
2023/05/23 09:26:07;;;;;;;4.35;3.92;;;;;;;18.64;55.95;94732.78;4996671;28;20671;-68
2023/05/23 09:28:33;;;;;;;4.60;3.80;;;;;;;18.72;54.72;94733.38;4990981;28;21231;-68
2023/05/23 09:31:05;;;;;;;3.63;3.20;;;;;;;18.88;51.66;94729.47;4996547;28;20222;-66
2023/05/23 09:33:48;;;;;;;5.38;3.03;;;;;;;19.07;47.59;94735.75;5004677;28;20227;-67
2023/05/23 09:36:20;;;;;;;4.85;3.00;;;;;;;18.98;47.19;94730.84;4987039;28;20223;-68
2023/05/23 09:38:47;;;;;;;2.97;2.78;;;;;;;19.03;47.68;94725.72;4996558;28;20226;-66
2023/05/23 09:41:13;;;;;;;3.33;2.72;;;;;;;19.07;47.36;94734.94;4993777;28;20182;-67
2023/05/23 09:43:39;;;;;;;2.58;2.38;;;;;;;19.27;46.77;94733.00;4999938;28;20178;-66
2023/05/23 09:46:11;;;;;;;3.28;2.45;;;;;;;19.43;45.99;94728.19;4997158;28;20218;-65
2023/05/23 09:48:37;;;;;;;3.28;2.20;;;;;;;19.50;45.80;94726.31;4993347;28;20592;-66
2023/05/23 09:51:04;;;;;;;2.28;2.08;;;;;;;19.52;44.93;94716.25;4992749;28;20257;-66
2023/05/23 09:53:30;;;;;;;2.97;2.45;;;;;;;19.73;44.28;94717.81;4994551;28;20310;-66
2023/05/23 09:55:58;;;;;;;3.13;2.30;;;;;;;19.76;44.51;94701.38;4994649;28;20195;-67
2023/05/23 09:58:26;;;;;;;2.40;2.20;;;;;;;20.00;43.20;94703.22;4998372;28;20223;-67
2023/05/23 10:00:53;;;;;;;2.58;2.38;;;;;;;20.04;43.23;94704.41;4995047;28;20227;-67
2023/05/23 10:03:25;;;;;;;2.33;2.13;;;;;;;20.10;41.76;94707.25;4999953;28;20246;-67
2023/05/23 10:05:58;;;;;;;2.55;2.35;;;;;;;20.20;41.49;94708.38;4987199;28;20219;-66
2023/05/23 10:08:30;;;;;;;4.85;2.70;;;;;;;20.34;41.46;94702.91;4987530;28;20572;-66
2023/05/23 10:10:55;;;;;;;2.45;2.25;;;;;;;20.51;41.90;94706.66;4989055;28;20250;-68
2023/05/23 10:13:24;;;;;;;2.75;2.50;;;;;;;20.72;41.77;94700.13;4992213;28;20313;-64
2023/05/23 10:16:07;;;;;;;2.90;2.53;;;;;;;20.78;41.13;94701.09;4983934;28;20594;-69
2023/05/23 10:18:42;;;;;;;2.47;2.17;;;;;;;20.88;40.08;94701.38;4991374;28;20575;-66
2023/05/23 10:21:30;;;;;;;3.08;2.20;;;;;;;20.92;39.23;94703.38;4995045;28;20229;-72
2023/05/23 10:23:58;;;;;;;2.97;2.63;;;;;;;21.02;40.20;94697.50;4990829;28;20262;-70
2023/05/23 10:26:25;;;;;;;2.58;2.30;;;;;;;21.11;38.97;94708.69;4989855;28;20218;-69
2023/05/23 10:28:52;;;;;;;2.40;2.20;;;;;;;21.54;38.29;94689.88;4994216;28;20191;-70
2023/05/23 10:31:19;;;;;;;3.58;2.50;;;;;;;21.35;37.12;94694.38;5008158;28;20677;-66
2023/05/23 10:33:52;;;;;;;2.60;2.35;;;;;;;21.40;37.65;94688.41;4995903;28;20230;-68
2023/05/23 10:36:39;;;;;;;2.35;2.13;;;;;;;21.59;37.96;94695.31;4991171;28;20255;-68
2023/05/23 10:39:43;;;;;;;2.55;2.20;;;;;;;21.79;36.27;94700.41;4997210;28;20272;-66
2023/05/23 10:42:23;;;;;;;2.50;2.30;;;;;;;21.76;36.63;94686.66;4955613;28;20247;-66
2023/05/23 10:44:49;;;;;;;2.53;2.33;;;;;;;21.79;36.87;94684.34;4959615;28;20223;-70
2023/05/23 10:47:26;;;;;;;2.10;2.00;;;;;;;21.79;33.76;94672.81;4958878;28;20563;-70
2023/05/23 10:49:53;;;;;;;2.50;2.30;;;;;;;21.89;36.20;94667.72;4961060;28;20199;-70
2023/05/23 10:52:22;;;;;;;3.05;2.45;;;;;;;22.07;37.04;94668.66;4956006;28;20234;-71
2023/05/23 10:54:51;;;;;;;3.50;2.28;;;;;;;22.17;36.80;94667.03;4958363;28;20327;-69
2023/05/23 10:57:21;;;;;;;2.30;2.10;;;;;;;22.39;35.93;94677.19;4950404;28;20235;-71
2023/05/23 10:59:50;;;;;;;3.38;2.45;;;;;;;22.52;34.46;94668.13;4958086;28;20223;-69
2023/05/23 11:02:24;;;;;;;2.13;1.92;;;;;;;22.65;34.19;94668.69;4955023;28;20199;-69
2023/05/23 11:05:14;;;;;;;2.28;1.98;;;;;;;22.71;32.62;94666.09;4956646;28;20188;-67
2023/05/23 11:07:40;;;;;;;2.42;1.90;;;;;;;22.67;32.72;94663.09;4958629;28;20227;-67
2023/05/23 11:10:09;;;;;;;2.08;1.90;;;;;;;22.77;34.54;94657.94;4966278;28;20211;-67
2023/05/23 11:12:41;;;;;;;2.03;1.83;;;;;;;22.92;33.56;94664.69;4958535;28;20224;-67
2023/05/23 11:15:15;;;;;;;1.95;1.77;;;;;;;23.09;31.77;94661.03;4959708;28;20242;-66
2023/05/23 11:17:57;;;;;;;1.77;1.67;;;;;;;23.24;32.32;94651.66;4958117;28;20250;-67
2023/05/23 11:20:27;;;;;;;2.20;2.00;;;;;;;23.27;33.30;94657.34;5001625;28;20227;-68
2023/05/23 11:23:02;;;;;;;3.42;3.13;;;;;;;23.61;32.88;94656.63;4997771;28;20218;-68
2023/05/23 11:25:44;;;;;;;2.40;2.20;;;;;;;23.32;33.69;94649.41;4995676;28;20210;-69
2023/05/23 11:28:11;;;;;;;2.30;2.10;;;;;;;23.52;32.83;94658.88;4994959;28;20230;-68
2023/05/23 11:30:40;;;;;;;2.22;2.03;;;;;;;23.64;31.64;94648.91;4994245;28;20229;-69
2023/05/23 11:33:12;;;;;;;2.92;2.15;;;;;;;23.79;30.43;94659.13;4999697;28;20223;-70